Time;durP1;ratioP1;P1;durP2;ratioP2;P2;SDS_P1;SDS_P2;PMS_P1;PMS_P2;Temp;Humidity;BMP_temperature;BMP_pressure;BME280_temperature;BME280_humidity;BME280_pressure;Samples;Min_cycle;Max_cycle;Signal;HPM_P1;HPM_P2
2023/07/28 00:01:24;;;;;;;27.33;10.43;;;18.10;99.90;;;;;;5001652;28;20038;-71
2023/07/28 00:03:49;;;;;;;23.02;10.30;;;18.20;99.90;;;;;;5001160;28;20056;-71
2023/07/28 00:06:15;;;;;;;18.00;9.80;;;18.10;99.90;;;;;;4989885;28;20129;-70
2023/07/28 00:08:40;;;;;;;27.73;11.05;;;18.20;99.90;;;;;;5002235;28;20049;-70
2023/07/28 00:11:11;;;;;;;19.77;9.73;;;18.20;99.90;;;;;;5003804;28;20767;-71
2023/07/28 00:13:38;;;;;;;27.50;11.38;;;18.20;99.90;;;;;;5013195;28;20395;-72
2023/07/28 00:16:04;;;;;;;32.53;11.20;;;18.20;99.90;;;;;;5004524;28;20572;-69
2023/07/28 00:18:29;;;;;;;25.88;10.73;;;18.10;99.90;;;;;;5002310;28;20213;-70
2023/07/28 00:20:55;;;;;;;28.55;10.32;;;18.20;99.90;;;;;;4992700;28;20054;-69
2023/07/28 00:23:20;;;;;;;23.60;10.88;;;18.20;99.90;;;;;;5003726;28;20046;-72
2023/07/28 00:25:46;;;;;;;30.70;10.70;;;18.20;99.90;;;;;;5004591;28;20483;-71
2023/07/28 00:28:12;;;;;;;22.98;11.43;;;18.10;99.90;;;;;;5012259;28;20038;-71
2023/07/28 00:30:37;;;;;;;25.52;11.82;;;18.00;99.90;;;;;;5005062;28;20048;-70
2023/07/28 00:33:03;;;;;;;23.42;10.95;;;18.00;99.90;;;;;;5004571;28;20050;-71
2023/07/28 00:35:29;;;;;;;29.42;11.40;;;18.10;99.90;;;;;;5003785;28;20081;-71
2023/07/28 00:37:54;;;;;;;21.85;11.65;;;18.00;99.90;;;;;;5001905;28;20096;-70
2023/07/28 00:40:22;;;;;;;25.58;12.32;;;18.00;99.90;;;;;;5006901;28;20137;-71
2023/07/28 00:42:47;;;;;;;29.55;13.35;;;18.20;99.90;;;;;;5004585;28;20125;-71
2023/07/28 00:45:13;;;;;;;27.70;12.63;;;18.10;99.90;;;;;;5004615;28;20121;-70
2023/07/28 00:47:39;;;;;;;30.98;13.30;;;18.10;99.90;;;;;;5003312;28;20827;-70
2023/07/28 00:50:06;;;;;;;33.22;13.82;;;18.10;99.90;;;;;;4992341;28;20050;-71
2023/07/28 00:52:32;;;;;;;35.70;14.10;;;18.20;99.90;;;;;;5001468;28;20510;-70
2023/07/28 00:54:58;;;;;;;33.00;14.30;;;18.10;99.90;;;;;;5003910;28;20497;-71
2023/07/28 00:57:23;;;;;;;33.88;14.98;;;18.10;99.90;;;;;;5004691;28;20049;-70
2023/07/28 00:59:49;;;;;;;36.78;15.65;;;18.00;99.90;;;;;;5003474;28;20145;-70
2023/07/28 01:02:14;;;;;;;36.33;14.55;;;18.10;99.90;;;;;;5001029;28;20084;-70
2023/07/28 01:04:41;;;;;;;34.33;15.40;;;18.00;99.90;;;;;;4991966;28;20050;-71
2023/07/28 01:07:13;;;;;;;32.10;15.60;;;18.10;99.90;;;;;;5003549;28;20038;-71
2023/07/28 01:10:05;;;;;;;31.95;14.70;;;18.00;99.90;;;;;;5005821;28;20057;-69
2023/07/28 01:12:31;;;;;;;33.50;15.75;;;18.20;99.90;;;;;;5005768;28;20052;-71
2023/07/28 01:14:56;;;;;;;32.60;14.73;;;18.00;99.90;;;;;;5003795;28;20054;-70
2023/07/28 01:17:23;;;;;;;32.47;15.80;;;18.10;99.90;;;;;;5003346;28;20389;-70
2023/07/28 01:19:50;;;;;;;39.70;15.35;;;18.00;99.90;;;;;;4995100;28;20104;-71
2023/07/28 01:22:40;;;;;;;33.50;15.15;;;18.10;99.90;;;;;;5003072;28;20038;-70
2023/07/28 01:25:21;;;;;;;33.58;15.45;;;18.10;99.90;;;;;;5000862;28;20058;-69
2023/07/28 01:27:48;;;;;;;31.75;15.75;;;18.10;99.90;;;;;;5005902;28;20048;-71
2023/07/28 01:30:14;;;;;;;47.40;16.90;;;18.10;99.90;;;;;;5003767;28;20084;-70
2023/07/28 01:32:39;;;;;;;37.90;16.13;;;18.10;99.90;;;;;;5000756;28;20831;-71
2023/07/28 01:35:05;;;;;;;33.80;15.35;;;18.10;99.90;;;;;;4991306;28;20129;-71
2023/07/28 01:37:31;;;;;;;37.25;16.60;;;18.10;99.90;;;;;;5002947;28;20139;-71
2023/07/28 01:40:00;;;;;;;34.92;16.38;;;18.10;99.90;;;;;;5006586;28;20485;-71
2023/07/28 01:42:25;;;;;;;38.17;15.02;;;18.10;99.90;;;;;;5003459;28;20210;-70
2023/07/28 01:44:51;;;;;;;35.17;15.52;;;18.10;99.90;;;;;;5003570;28;20077;-70
2023/07/28 01:47:16;;;;;;;38.85;15.98;;;18.10;99.90;;;;;;4994236;28;20547;-70
2023/07/28 01:49:42;;;;;;;36.17;17.10;;;18.10;99.90;;;;;;5002193;28;20046;-71
2023/07/28 01:52:08;;;;;;;34.35;15.45;;;18.00;99.90;;;;;;5000365;28;20086;-71
2023/07/28 01:54:33;;;;;;;37.33;15.27;;;18.20;99.90;;;;;;5000764;28;20412;-72
2023/07/28 01:56:59;;;;;;;29.52;14.05;;;18.00;99.90;;;;;;5002620;28;20537;-70
2023/07/28 01:59:24;;;;;;;37.40;14.18;;;18.10;99.90;;;;;;5003270;28;20045;-70
2023/07/28 02:01:50;;;;;;;36.03;14.85;;;18.10;99.90;;;;;;4992359;28;20129;-70
2023/07/28 02:04:16;;;;;;;41.08;15.75;;;18.20;99.90;;;;;;5000183;28;20042;-70
2023/07/28 02:06:42;;;;;;;34.53;14.95;;;18.10;99.90;;;;;;5000352;28;20445;-70
2023/07/28 02:09:07;;;;;;;33.83;14.90;;;18.00;99.90;;;;;;5009795;28;20034;-68
2023/07/28 02:11:33;;;;;;;33.90;14.00;;;18.00;99.90;;;;;;4993211;28;20481;-70
2023/07/28 02:13:59;;;;;;;30.02;13.63;;;18.10;99.90;;;;;;5003019;28;20085;-70
2023/07/28 02:16:27;;;;;;;25.38;12.98;;;18.10;99.90;;;;;;4993263;28;20041;-70
2023/07/28 02:18:53;;;;;;;34.65;14.15;;;18.20;99.90;;;;;;5002893;28;20053;-70
2023/07/28 02:21:19;;;;;;;35.25;14.07;;;18.10;99.90;;;;;;5000795;28;20050;-70
2023/07/28 02:23:44;;;;;;;32.40;13.68;;;18.10;99.90;;;;;;4992704;28;20053;-69
2023/07/28 02:26:10;;;;;;;33.42;12.70;;;18.10;99.90;;;;;;5009922;28;20080;-70
2023/07/28 02:28:36;;;;;;;23.63;11.55;;;18.10;99.90;;;;;;4992827;28;20053;-70
2023/07/28 02:31:01;;;;;;;29.23;12.05;;;18.20;99.90;;;;;;5002857;28;20171;-70
2023/07/28 02:33:29;;;;;;;31.85;12.57;;;18.20;99.90;;;;;;5009438;28;20088;-70
2023/07/28 02:35:56;;;;;;;34.65;12.32;;;18.10;99.90;;;;;;5004630;28;20595;-69
2023/07/28 02:38:21;;;;;;;29.38;11.95;;;18.00;99.90;;;;;;5002267;28;20053;-70
2023/07/28 02:40:47;;;;;;;35.53;11.85;;;18.10;99.90;;;;;;5010342;28;20038;-70
2023/07/28 02:43:13;;;;;;;28.60;11.60;;;18.10;99.90;;;;;;5010415;28;20516;-70
2023/07/28 02:45:38;;;;;;;34.33;11.65;;;18.00;99.90;;;;;;5009325;28;20056;-69
2023/07/28 02:48:04;;;;;;;29.02;11.05;;;18.00;99.90;;;;;;4999623;28;20042;-70
2023/07/28 02:50:30;;;;;;;34.92;12.00;;;18.10;99.90;;;;;;4999786;28;20468;-70
2023/07/28 02:52:55;;;;;;;31.08;11.30;;;18.10;99.90;;;;;;4992339;28;20058;-71
2023/07/28 02:55:21;;;;;;;27.10;10.55;;;18.10;99.90;;;;;;5009416;28;20613;-70
2023/07/28 02:57:46;;;;;;;22.77;10.30;;;18.10;99.90;;;;;;5002061;28;20044;-70
2023/07/28 03:00:12;;;;;;;24.92;11.52;;;18.10;99.90;;;;;;5002623;28;20476;-70
2023/07/28 03:02:38;;;;;;;27.88;10.20;;;18.00;99.90;;;;;;5009053;28;20199;-72
2023/07/28 03:05:04;;;;;;;25.00;10.13;;;18.00;99.90;;;;;;4990170;28;20512;-71
2023/07/28 03:07:30;;;;;;;28.08;9.77;;;18.10;99.90;;;;;;4999003;28;20428;-70
2023/07/28 03:09:56;;;;;;;27.65;10.32;;;18.10;99.90;;;;;;5009137;28;20037;-70
2023/07/28 03:12:21;;;;;;;26.05;9.95;;;18.10;99.90;;;;;;4989265;28;20046;-72
2023/07/28 03:14:47;;;;;;;29.85;10.65;;;18.10;99.90;;;;;;4998499;28;20046;-71
2023/07/28 03:17:13;;;;;;;27.80;9.55;;;18.10;99.90;;;;;;5002093;28;20037;-70
2023/07/28 03:19:38;;;;;;;25.00;8.30;;;18.00;99.90;;;;;;5005148;28;20049;-71
2023/07/28 03:22:04;;;;;;;26.90;8.13;;;18.10;99.90;;;;;;5002421;28;20044;-71
2023/07/28 03:24:30;;;;;;;28.08;8.90;;;18.20;99.90;;;;;;5001885;28;20050;-70
2023/07/28 03:26:55;;;;;;;24.75;7.60;;;18.00;99.90;;;;;;5002304;28;20393;-69
2023/07/28 03:29:22;;;;;;;35.35;8.52;;;18.10;99.90;;;;;;5000289;28;20180;-70
2023/07/28 03:31:47;;;;;;;27.13;8.70;;;18.10;99.90;;;;;;5003232;28;20049;-69
2023/07/28 03:34:13;;;;;;;23.45;8.43;;;18.10;99.90;;;;;;5010347;28;20121;-71
2023/07/28 03:36:39;;;;;;;20.02;7.95;;;18.10;99.90;;;;;;5001790;28;20481;-70
2023/07/28 03:39:04;;;;;;;18.52;7.35;;;18.00;99.90;;;;;;5004075;28;20457;-69
2023/07/28 03:41:31;;;;;;;21.92;8.00;;;18.00;99.90;;;;;;4991083;28;20050;-70
2023/07/28 03:43:56;;;;;;;22.17;7.20;;;18.10;99.90;;;;;;5001257;28;20104;-70
2023/07/28 03:46:22;;;;;;;23.38;6.78;;;18.10;99.90;;;;;;5001946;28;20134;-70
2023/07/28 03:48:47;;;;;;;23.83;7.80;;;18.10;99.90;;;;;;4999214;28;20053;-70
2023/07/28 03:51:13;;;;;;;24.77;7.63;;;18.00;99.90;;;;;;4998660;28;20371;-71
2023/07/28 03:53:39;;;;;;;24.33;7.90;;;18.10;99.90;;;;;;4989144;28;20062;-70
2023/07/28 03:56:04;;;;;;;21.52;7.55;;;18.10;99.90;;;;;;5002885;28;20045;-71
2023/07/28 03:58:30;;;;;;;28.15;8.43;;;18.10;99.90;;;;;;5009128;28;20074;-71
2023/07/28 04:00:56;;;;;;;22.00;7.80;;;18.00;99.90;;;;;;4999392;28;20052;-71
2023/07/28 04:03:21;;;;;;;21.55;8.38;;;18.10;99.90;;;;;;5009444;28;20048;-71
2023/07/28 04:05:47;;;;;;;21.45;8.10;;;18.00;99.90;;;;;;4992005;28;20053;-71
2023/07/28 04:08:13;;;;;;;23.02;7.63;;;18.20;99.90;;;;;;5001462;28;20088;-69
2023/07/28 04:10:38;;;;;;;17.38;7.13;;;18.00;99.90;;;;;;5009563;28;20088;-71
2023/07/28 04:13:04;;;;;;;23.65;8.05;;;18.10;99.90;;;;;;4990691;28;20053;-71
2023/07/28 04:15:29;;;;;;;22.15;8.10;;;18.00;99.90;;;;;;5001195;28;20046;-71
2023/07/28 04:17:55;;;;;;;18.15;7.30;;;18.00;99.90;;;;;;5009535;28;20058;-71
2023/07/28 04:20:21;;;;;;;26.48;8.05;;;18.10;99.90;;;;;;4999112;28;20129;-71
2023/07/28 04:22:47;;;;;;;20.85;7.45;;;18.10;99.90;;;;;;4998668;28;20039;-71
2023/07/28 04:25:12;;;;;;;17.60;7.75;;;18.10;99.90;;;;;;4999575;28;20082;-71
2023/07/28 04:27:38;;;;;;;24.15;7.30;;;18.20;99.90;;;;;;5001566;28;20072;-70
2023/07/28 04:30:04;;;;;;;18.30;7.10;;;18.10;99.90;;;;;;5001108;28;20104;-71
2023/07/28 04:32:30;;;;;;;18.13;6.72;;;18.10;99.90;;;;;;5002187;28;20563;-71
2023/07/28 04:34:56;;;;;;;19.77;7.78;;;18.00;99.90;;;;;;4997458;28;20122;-71
2023/07/28 04:37:22;;;;;;;21.75;7.15;;;18.00;99.90;;;;;;5006355;28;20121;-70
2023/07/28 04:39:48;;;;;;;20.40;7.50;;;18.00;99.90;;;;;;4998292;28;20122;-70
2023/07/28 04:42:14;;;;;;;17.60;7.15;;;18.20;99.90;;;;;;4998157;28;20055;-71
2023/07/28 04:44:40;;;;;;;16.73;6.47;;;18.20;99.90;;;;;;4999614;28;20042;-71
2023/07/28 04:47:06;;;;;;;16.67;7.07;;;18.20;99.90;;;;;;5001000;28;20092;-70
2023/07/28 04:49:31;;;;;;;17.27;6.38;;;18.10;99.90;;;;;;5001079;28;20069;-70
2023/07/28 04:51:57;;;;;;;16.23;6.80;;;18.10;99.90;;;;;;4998652;28;20038;-70
2023/07/28 04:54:23;;;;;;;15.57;6.78;;;18.20;99.90;;;;;;5001618;28;20596;-71
2023/07/28 04:56:52;;;;;;;17.73;6.93;;;18.20;99.90;;;;;;5003016;28;20046;-70
2023/07/28 04:59:18;;;;;;;15.13;6.55;;;18.10;99.90;;;;;;4995051;28;20556;-70
2023/07/28 05:01:44;;;;;;;16.98;6.63;;;18.10;99.90;;;;;;5004034;28;20117;-70
2023/07/28 05:04:10;;;;;;;21.30;6.70;;;18.10;99.90;;;;;;5004546;28;20045;-70
2023/07/28 05:06:35;;;;;;;21.48;7.32;;;18.10;99.90;;;;;;5007912;28;20042;-71
2023/07/28 05:09:01;;;;;;;22.42;7.60;;;18.10;99.90;;;;;;4994723;28;20149;-70
2023/07/28 05:11:27;;;;;;;14.50;6.80;;;18.20;99.90;;;;;;5012401;28;20041;-72
2023/07/28 05:13:52;;;;;;;14.65;6.68;;;18.20;99.90;;;;;;5003778;28;20045;-70
2023/07/28 05:16:18;;;;;;;23.98;7.15;;;18.10;99.90;;;;;;5000737;28;20118;-70
2023/07/28 05:18:44;;;;;;;21.58;7.55;;;18.10;99.90;;;;;;4991547;28;20776;-70
2023/07/28 05:21:09;;;;;;;22.20;7.40;;;18.10;99.90;;;;;;4994842;28;20053;-70
2023/07/28 05:23:35;;;;;;;21.90;7.85;;;18.10;99.90;;;;;;5012085;28;20038;-72
2023/07/28 05:26:00;;;;;;;17.55;7.55;;;18.20;99.90;;;;;;5004041;28;20124;-70
2023/07/28 05:28:26;;;;;;;19.88;6.82;;;18.40;99.90;;;;;;5001527;28;20045;-71
2023/07/28 05:30:52;;;;;;;14.20;6.32;;;18.30;99.90;;;;;;5002093;28;20050;-70
2023/07/28 05:33:17;;;;;;;18.27;6.30;;;18.30;99.90;;;;;;5003616;28;20046;-71
2023/07/28 05:35:43;;;;;;;24.60;7.22;;;18.40;99.90;;;;;;5008567;28;20038;-70
2023/07/28 05:38:09;;;;;;;15.98;7.45;;;18.30;99.90;;;;;;5007756;28;20045;-70
2023/07/28 05:40:34;;;;;;;20.73;6.65;;;18.40;99.90;;;;;;5003600;28;20451;-72
2023/07/28 05:43:00;;;;;;;13.93;6.32;;;18.30;99.90;;;;;;5003889;28;20069;-71
2023/07/28 05:45:25;;;;;;;14.48;6.47;;;18.40;99.90;;;;;;5003820;28;20415;-70
2023/07/28 05:47:51;;;;;;;13.70;7.07;;;18.40;99.90;;;;;;5003003;28;20104;-71
2023/07/28 05:50:17;;;;;;;17.88;7.43;;;18.40;99.90;;;;;;5009871;28;20061;-70
2023/07/28 05:52:43;;;;;;;14.00;6.70;;;18.40;99.90;;;;;;5003100;28;20050;-71
2023/07/28 05:55:08;;;;;;;14.85;7.10;;;18.50;99.90;;;;;;5003442;28;20050;-70
2023/07/28 05:57:34;;;;;;;15.90;7.63;;;18.50;99.90;;;;;;5003396;28;20052;-70
2023/07/28 06:00:00;;;;;;;13.07;7.57;;;18.50;99.90;;;;;;5003022;28;20057;-71
2023/07/28 06:02:25;;;;;;;12.82;7.45;;;18.50;99.90;;;;;;5010772;28;20042;-70
2023/07/28 06:04:52;;;;;;;13.20;7.60;;;18.50;99.90;;;;;;5002171;28;20045;-72
2023/07/28 06:07:17;;;;;;;12.30;7.32;;;18.60;99.90;;;;;;5003300;28;20489;-70
2023/07/28 06:09:43;;;;;;;14.15;7.82;;;18.50;99.90;;;;;;5003187;28;20053;-73
2023/07/28 06:12:09;;;;;;;11.85;8.05;;;18.50;99.90;;;;;;4991172;28;20062;-71
2023/07/28 06:14:34;;;;;;;13.30;7.85;;;18.50;99.90;;;;;;5000042;28;20034;-71
2023/07/28 06:17:00;;;;;;;15.10;7.80;;;18.60;99.90;;;;;;4999961;28;20094;-72
2023/07/28 06:19:26;;;;;;;10.43;7.75;;;18.50;99.90;;;;;;5002441;28;20044;-72
2023/07/28 06:21:51;;;;;;;15.10;8.55;;;18.50;99.90;;;;;;5004604;28;20045;-71
2023/07/28 06:24:17;;;;;;;13.23;8.73;;;18.50;99.90;;;;;;5001740;28;20406;-72
2023/07/28 06:26:43;;;;;;;12.77;8.93;;;18.60;99.90;;;;;;5006075;28;20121;-71
2023/07/28 06:29:08;;;;;;;12.93;9.40;;;18.70;99.90;;;;;;4999932;28;20045;-71
2023/07/28 06:31:34;;;;;;;13.50;9.43;;;18.60;99.90;;;;;;5004571;28;20520;-70
2023/07/28 06:33:59;;;;;;;13.55;8.77;;;18.70;99.90;;;;;;5004752;28;20128;-71
2023/07/28 06:36:25;;;;;;;11.63;8.23;;;18.70;99.90;;;;;;5000376;28;20379;-71
2023/07/28 06:38:52;;;;;;;12.73;8.95;;;18.60;99.90;;;;;;5003147;28;20046;-70
2023/07/28 06:41:18;;;;;;;19.30;9.02;;;18.60;99.90;;;;;;5007251;28;20543;-70
2023/07/28 06:43:44;;;;;;;11.00;8.60;;;18.70;99.90;;;;;;4992869;28;20057;-70
2023/07/28 06:46:09;;;;;;;13.45;9.20;;;18.70;99.90;;;;;;5002401;28;20148;-71
2023/07/28 06:48:35;;;;;;;9.57;7.40;;;18.80;99.90;;;;;;4984323;28;20143;-70
2023/07/28 06:51:00;;;;;;;14.35;8.45;;;18.70;99.90;;;;;;5006343;28;20104;-70
2023/07/28 06:53:26;;;;;;;13.70;8.10;;;18.70;99.90;;;;;;4999093;28;20443;-71
2023/07/28 06:55:52;;;;;;;14.82;7.65;;;18.70;99.90;;;;;;5001550;28;20474;-70
2023/07/28 06:58:18;;;;;;;8.95;7.72;;;18.70;99.90;;;;;;5005528;28;20034;-70
2023/07/28 07:00:43;;;;;;;9.85;7.55;;;18.80;99.90;;;;;;5003727;28;20038;-71
2023/07/28 07:03:10;;;;;;;15.18;8.45;;;18.70;99.90;;;;;;5009878;28;20520;-71
2023/07/28 07:05:36;;;;;;;9.27;7.55;;;18.80;99.90;;;;;;5001991;28;20046;-71
2023/07/28 07:08:01;;;;;;;16.42;8.98;;;18.80;99.90;;;;;;5000164;28;20068;-70
2023/07/28 07:10:27;;;;;;;9.93;8.80;;;18.80;99.90;;;;;;4989623;28;20052;-70
2023/07/28 07:12:53;;;;;;;12.07;7.55;;;18.80;99.90;;;;;;4999184;28;20049;-72
2023/07/28 07:15:18;;;;;;;11.00;8.60;;;18.80;99.90;;;;;;5001867;28;20100;-72
2023/07/28 07:17:46;;;;;;;14.43;8.77;;;18.70;99.90;;;;;;5002053;28;20042;-72
2023/07/28 07:20:12;;;;;;;10.52;8.40;;;18.80;99.90;;;;;;5001542;28;20053;-72
2023/07/28 07:22:37;;;;;;;13.20;8.45;;;18.80;99.90;;;;;;5001839;28;20129;-71
2023/07/28 07:25:04;;;;;;;11.43;8.20;;;18.80;99.90;;;;;;5002133;28;20052;-71
2023/07/28 07:27:30;;;;;;;11.48;8.38;;;18.90;99.90;;;;;;5001965;28;20058;-71
2023/07/28 07:29:57;;;;;;;12.55;8.45;;;18.80;99.90;;;;;;5010055;28;20038;-70
2023/07/28 07:32:23;;;;;;;18.50;8.35;;;18.90;99.90;;;;;;5007858;28;20049;-71
2023/07/28 07:34:48;;;;;;;9.90;7.63;;;18.90;99.90;;;;;;5010198;28;20397;-70
2023/07/28 07:37:14;;;;;;;14.45;7.95;;;19.00;99.90;;;;;;5001816;28;20515;-70
2023/07/28 07:39:41;;;;;;;11.23;8.32;;;19.10;99.90;;;;;;5005508;28;20145;-71
2023/07/28 07:42:09;;;;;;;9.70;7.40;;;19.10;99.90;;;;;;4998369;28;20552;-70
2023/07/28 07:44:34;;;;;;;9.70;8.07;;;19.10;99.90;;;;;;4999854;28;20117;-71
2023/07/28 07:47:01;;;;;;;9.55;7.88;;;19.20;99.90;;;;;;5002088;28;20148;-70
2023/07/28 07:49:27;;;;;;;12.00;8.43;;;19.20;99.90;;;;;;5001564;28;20038;-71
2023/07/28 07:51:53;;;;;;;8.75;7.65;;;19.20;99.90;;;;;;5001102;28;20046;-70
2023/07/28 07:54:19;;;;;;;14.70;8.35;;;19.20;99.90;;;;;;5003659;28;20128;-71
2023/07/28 07:56:46;;;;;;;11.13;7.55;;;19.30;99.90;;;;;;4999881;28;20035;-70
2023/07/28 07:59:12;;;;;;;9.73;7.60;;;19.40;99.90;;;;;;5002292;28;20053;-72
2023/07/28 08:01:38;;;;;;;12.13;6.95;;;19.40;99.90;;;;;;5002380;28;20041;-72
2023/07/28 08:04:04;;;;;;;9.90;7.68;;;19.40;99.90;;;;;;4973812;28;21340;-70
2023/07/28 08:06:29;;;;;;;8.25;7.03;;;19.40;99.90;;;;;;5002967;28;20038;-70
2023/07/28 08:08:56;;;;;;;11.73;6.43;;;19.50;99.90;;;;;;4999912;28;20129;-71
2023/07/28 08:11:22;;;;;;;9.23;6.85;;;19.60;99.90;;;;;;5002284;28;20165;-70
2023/07/28 08:13:48;;;;;;;8.90;6.57;;;19.70;99.90;;;;;;5001830;28;20125;-70
2023/07/28 08:16:14;;;;;;;7.65;5.70;;;19.80;99.90;;;;;;4999935;28;20054;-71
2023/07/28 08:18:39;;;;;;;9.48;6.03;;;19.80;99.90;;;;;;4989256;28;20046;-71
2023/07/28 08:21:05;;;;;;;6.80;5.30;;;19.90;99.90;;;;;;4999407;28;20046;-71
2023/07/28 08:23:31;;;;;;;8.75;6.03;;;20.00;99.90;;;;;;5001901;28;20107;-71
2023/07/28 08:26:06;;;;;;;6.20;5.60;;;19.90;99.90;;;;;;4992406;28;20049;-75
2023/07/28 08:28:32;;;;;;;9.82;5.43;;;19.90;99.90;;;;;;5005179;28;20129;-71
2023/07/28 08:30:58;;;;;;;5.88;5.13;;;20.00;99.90;;;;;;5005771;28;20061;-71
2023/07/28 08:33:24;;;;;;;6.05;4.85;;;20.00;99.90;;;;;;5003845;28;20405;-73
2023/07/28 08:35:50;;;;;;;8.77;5.35;;;20.10;99.90;;;;;;5004450;28;20050;-71
2023/07/28 08:38:16;;;;;;;6.07;5.03;;;20.20;99.90;;;;;;5013595;28;20057;-72
2023/07/28 08:40:44;;;;;;;8.20;5.60;;;20.50;99.90;;;;;;5005685;28;20056;-72
2023/07/28 08:43:09;;;;;;;6.53;4.70;;;20.70;99.90;;;;;;5005562;28;20044;-72
2023/07/28 08:45:35;;;;;;;8.55;3.78;;;20.80;99.90;;;;;;5004000;28;20045;-70
2023/07/28 08:48:01;;;;;;;4.75;3.65;;;20.90;99.90;;;;;;5002173;28;20060;-72
2023/07/28 08:50:26;;;;;;;6.82;3.78;;;21.00;99.90;;;;;;5001757;28;20046;-72
2023/07/28 08:52:52;;;;;;;7.28;3.72;;;21.20;99.90;;;;;;5004558;28;20152;-73
2023/07/28 08:55:18;;;;;;;9.13;3.65;;;21.30;99.90;;;;;;5005664;28;20492;-72
2023/07/28 08:57:43;;;;;;;5.70;3.58;;;21.50;99.90;;;;;;5004296;28;20046;-71
2023/07/28 09:00:13;;;;;;;6.20;3.40;;;21.80;99.90;;;;;;5002318;28;20034;-75
2023/07/28 09:02:40;;;;;;;4.20;2.92;;;21.90;99.90;;;;;;4992528;28;20054;-74
2023/07/28 09:05:06;;;;;;;6.30;3.13;;;21.90;99.90;;;;;;4995014;28;20104;-71
2023/07/28 09:07:39;;;;;;;6.45;3.67;;;22.00;99.90;;;;;;5006932;28;20042;-71
2023/07/28 09:10:05;;;;;;;6.95;3.03;;;22.10;99.90;;;;;;5003979;28;20406;-72
2023/07/28 09:12:33;;;;;;;5.45;2.75;;;22.10;99.90;;;;;;5011252;28;20109;-72
2023/07/28 09:14:59;;;;;;;5.57;2.40;;;22.10;99.90;;;;;;5004784;28;20501;-71
2023/07/28 09:17:24;;;;;;;5.20;2.10;;;22.30;99.90;;;;;;5004484;28;20037;-73
2023/07/28 09:19:54;;;;;;;5.72;2.25;;;22.50;99.90;;;;;;5004645;28;20117;-71
2023/07/28 09:22:21;;;;;;;5.13;2.20;;;22.70;99.90;;;;;;5001294;28;20038;-71
2023/07/28 09:24:47;;;;;;;5.07;1.70;;;22.50;99.90;;;;;;5006973;28;20049;-72
2023/07/28 09:27:20;;;;;;;5.57;2.10;;;22.60;99.90;;;;;;5003113;28;20433;-71
2023/07/28 09:29:51;;;;;;;5.55;2.40;;;22.40;99.90;;;;;;5001137;28;20526;-71
2023/07/28 09:32:25;;;;;;;3.97;1.92;;;22.30;99.90;;;;;;5001366;28;20049;-71
2023/07/28 09:35:09;;;;;;;4.97;2.50;;;22.10;99.90;;;;;;5003810;28;20046;-71
2023/07/28 09:37:39;;;;;;;4.43;2.17;;;22.10;99.90;;;;;;5001118;28;20484;-71
2023/07/28 09:40:12;;;;;;;3.63;2.50;;;22.30;99.90;;;;;;5001014;28;20050;-71
2023/07/28 09:42:42;;;;;;;5.47;2.60;;;22.50;99.90;;;;;;4995296;28;20042;-71
2023/07/28 09:45:09;;;;;;;6.38;2.40;;;22.40;99.90;;;;;;5006235;28;20086;-71
2023/07/28 09:47:36;;;;;;;3.70;2.42;;;22.30;99.90;;;;;;5001551;28;20056;-71
2023/07/28 09:50:08;;;;;;;5.05;2.33;;;22.30;99.90;;;;;;5003702;28;20489;-72
2023/07/28 09:52:43;;;;;;;3.72;2.00;;;22.30;99.90;;;;;;5002935;28;20144;-72
2023/07/28 09:55:13;;;;;;;4.88;2.08;;;22.30;99.90;;;;;;5000747;28;20121;-71
2023/07/28 09:57:49;;;;;;;5.13;2.28;;;22.30;99.90;;;;;;5006889;28;20050;-71
2023/07/28 10:00:17;;;;;;;4.18;1.55;;;22.30;99.90;;;;;;4977544;28;20424;-72
2023/07/28 10:02:44;;;;;;;7.05;2.42;;;22.20;99.90;;;;;;5003433;28;20096;-71
2023/07/28 10:05:10;;;;;;;6.63;2.28;;;22.50;99.90;;;;;;5005968;28;20049;-71
2023/07/28 10:07:39;;;;;;;5.03;2.00;;;22.70;99.90;;;;;;5003015;28;20123;-72
2023/07/28 10:10:10;;;;;;;4.43;1.50;;;23.00;99.90;;;;;;5001049;28;20048;-72
2023/07/28 10:12:49;;;;;;;6.57;2.53;;;23.40;99.90;;;;;;5000006;28;20120;-72
2023/07/28 10:15:17;;;;;;;5.40;1.50;;;23.30;99.90;;;;;;5003165;28;20038;-71
2023/07/28 10:17:57;;;;;;;6.75;1.73;;;23.30;99.90;;;;;;4999628;28;20193;-73
2023/07/28 10:20:31;;;;;;;3.08;1.25;;;23.40;99.90;;;;;;5010751;28;20065;-71
2023/07/28 10:23:07;;;;;;;2.80;1.42;;;23.50;99.90;;;;;;5003168;28;20057;-71
2023/07/28 10:25:35;;;;;;;4.05;1.63;;;23.60;99.90;;;;;;5003858;28;20045;-72
2023/07/28 10:28:02;;;;;;;5.22;1.60;;;23.60;99.90;;;;;;5002936;28;20145;-72
2023/07/28 10:30:28;;;;;;;5.50;1.60;;;23.60;99.90;;;;;;5000058;28;20042;-72
2023/07/28 10:32:55;;;;;;;2.70;1.20;;;23.60;99.90;;;;;;5003248;28;20042;-71
2023/07/28 10:35:26;;;;;;;2.88;1.20;;;23.60;99.90;;;;;;4992310;28;20184;-72
2023/07/28 10:37:55;;;;;;;6.20;1.73;;;23.40;99.90;;;;;;4999126;28;20057;-72
2023/07/28 10:40:29;;;;;;;5.65;1.50;;;23.30;99.90;;;;;;4999973;28;20050;-72
2023/07/28 10:42:56;;;;;;;5.20;1.70;;;23.60;99.90;;;;;;5009889;28;20061;-72
2023/07/28 10:45:23;;;;;;;4.88;1.60;;;23.70;99.90;;;;;;5002596;28;20115;-72
2023/07/28 10:47:49;;;;;;;5.30;1.75;;;23.70;99.90;;;;;;4991088;28;20061;-72
2023/07/28 10:50:15;;;;;;;6.32;2.22;;;23.60;99.90;;;;;;5002513;28;20042;-72
2023/07/28 10:52:42;;;;;;;9.18;1.77;;;23.50;99.90;;;;;;5008357;28;20100;-73
2023/07/28 10:55:15;;;;;;;4.55;1.65;;;23.40;99.90;;;;;;4992872;28;20497;-72
2023/07/28 10:57:43;;;;;;;8.07;1.98;;;23.50;99.90;;;;;;5002477;28;20106;-72
2023/07/28 11:00:11;;;;;;;6.53;2.25;;;23.40;99.90;;;;;;5002298;28;20571;-71
2023/07/28 11:02:42;;;;;;;4.00;1.60;;;23.30;99.90;;;;;;4993148;28;20125;-71
2023/07/28 11:05:13;;;;;;;4.82;1.63;;;23.20;99.90;;;;;;5009980;28;20034;-71
2023/07/28 11:07:43;;;;;;;4.65;1.50;;;23.00;99.90;;;;;;5003116;28;20058;-71
2023/07/28 11:10:13;;;;;;;4.65;1.60;;;23.00;99.90;;;;;;5001986;28;20045;-71
2023/07/28 11:12:42;;;;;;;4.65;1.38;;;23.20;99.90;;;;;;5001888;28;20041;-70
2023/07/28 11:15:12;;;;;;;5.47;1.70;;;23.60;99.90;;;;;;4999807;28;20045;-72
2023/07/28 11:17:39;;;;;;;6.40;1.67;;;23.80;99.90;;;;;;5007810;28;20535;-71
2023/07/28 11:20:25;;;;;;;5.32;1.70;;;23.80;99.90;;;;;;5009057;28;20147;-72
2023/07/28 11:22:59;;;;;;;8.07;1.50;;;23.60;99.90;;;;;;5005764;28;20515;-71
2023/07/28 11:25:27;;;;;;;3.53;1.30;;;23.70;99.90;;;;;;5007639;28;20041;-73
2023/07/28 11:27:53;;;;;;;3.47;1.20;;;23.80;99.90;;;;;;5010006;28;20042;-72
2023/07/28 11:30:19;;;;;;;5.43;1.30;;;24.00;99.90;;;;;;5009046;28;20095;-71
2023/07/28 11:32:47;;;;;;;3.72;1.20;;;24.10;99.90;;;;;;5005185;28;20096;-71
2023/07/28 11:35:15;;;;;;;5.80;1.42;;;24.10;99.90;;;;;;5005227;28;20455;-72
2023/07/28 11:37:43;;;;;;;4.50;1.40;;;24.10;99.90;;;;;;5001873;28;20052;-71
2023/07/28 11:40:11;;;;;;;4.15;1.27;;;24.00;99.90;;;;;;5001504;28;20045;-71
2023/07/28 11:42:48;;;;;;;2.88;1.00;;;23.90;99.90;;;;;;4999499;28;20056;-71
2023/07/28 11:45:16;;;;;;;2.45;1.10;;;23.80;99.90;;;;;;4998585;28;20081;-71
2023/07/28 11:48:09;;;;;;;3.88;1.40;;;23.80;99.90;;;;;;5000727;28;20034;-71
2023/07/28 11:50:40;;;;;;;3.92;1.15;;;23.80;99.90;;;;;;5000741;28;20046;-71
2023/07/28 11:53:07;;;;;;;2.90;1.20;;;23.90;99.90;;;;;;4998345;28;20093;-71
2023/07/28 11:55:37;;;;;;;2.97;1.27;;;23.90;99.90;;;;;;4998105;28;20050;-71
2023/07/28 11:58:05;;;;;;;2.00;1.10;;;24.10;99.90;;;;;;5002646;28;20033;-71
2023/07/28 12:00:35;;;;;;;2.88;1.17;;;24.40;99.90;;;;;;5001767;28;20477;-71
2023/07/28 12:03:09;;;;;;;2.45;1.15;;;24.50;99.90;;;;;;5001144;28;20042;-71
2023/07/28 12:05:36;;;;;;;2.22;0.80;;;24.70;99.90;;;;;;4992826;28;20038;-71
2023/07/28 12:08:07;;;;;;;4.00;0.93;;;25.00;99.90;;;;;;5004534;28;20038;-72
2023/07/28 12:10:33;;;;;;;6.07;1.10;;;25.10;99.90;;;;;;5005355;28;20037;-70
2023/07/28 12:13:09;;;;;;;2.25;1.23;;;25.20;99.90;;;;;;5003869;28;20081;-71
2023/07/28 12:15:41;;;;;;;3.85;1.00;;;25.10;99.90;;;;;;5002020;28;20042;-71
2023/07/28 12:18:15;;;;;;;2.05;0.95;;;25.00;99.90;;;;;;5003602;28;20061;-71
2023/07/28 12:20:46;;;;;;;4.93;1.38;;;25.00;99.90;;;;;;5005053;28;20477;-71
2023/07/28 12:23:16;;;;;;;2.72;1.20;;;24.80;99.90;;;;;;4994162;28;20054;-71
2023/07/28 12:25:42;;;;;;;4.32;1.30;;;24.60;99.90;;;;;;5002087;28;20552;-71
2023/07/28 12:28:08;;;;;;;6.22;1.15;;;24.80;99.90;;;;;;5002775;28;20121;-70
2023/07/28 12:30:35;;;;;;;2.67;1.27;;;24.80;99.90;;;;;;5005060;28;20041;-71
2023/07/28 12:33:01;;;;;;;5.25;1.20;;;24.50;99.90;;;;;;5005053;28;20798;-71
2023/07/28 12:35:31;;;;;;;3.65;0.93;;;24.40;99.90;;;;;;5002700;28;20125;-70
2023/07/28 12:38:05;;;;;;;1.85;1.10;;;24.30;99.90;;;;;;4992510;28;20061;-71